createdAt,value
2022-10-05T00:01:34.330Z,5.20
2022-10-05T00:04:15.427Z,4.30
2022-10-05T00:06:48.454Z,4.20
2022-10-05T00:09:23.408Z,4.80
2022-10-05T00:11:56.759Z,5.33
2022-10-05T00:14:32.288Z,4.40
2022-10-05T00:17:08.849Z,5.47
2022-10-05T00:19:41.257Z,5.23
2022-10-05T00:22:17.028Z,5.20
2022-10-05T00:24:48.079Z,5.37
2022-10-05T00:27:24.355Z,5.10
2022-10-05T00:30:00.312Z,4.30
2022-10-05T00:32:32.747Z,5.27
2022-10-05T00:35:05.758Z,5.20
2022-10-05T00:37:37.348Z,5.80
2022-10-05T00:40:20.846Z,5.80
2022-10-05T00:43:07.194Z,6.00
2022-10-05T00:45:43.734Z,5.73
2022-10-05T00:48:25.267Z,7.40
2022-10-05T00:51:10.574Z,6.00
2022-10-05T00:53:54.998Z,7.60
2022-10-05T00:56:43.619Z,6.03
2022-10-05T00:59:30.309Z,6.10
2022-10-05T01:02:11.225Z,5.53
2022-10-05T01:04:48.830Z,5.23
2022-10-05T01:07:34.728Z,5.87
2022-10-05T01:10:12.526Z,5.50
2022-10-05T01:12:51.954Z,6.43
2022-10-05T01:15:31.477Z,6.40
2022-10-05T01:18:15.803Z,5.13
2022-10-05T01:20:57.819Z,6.10
2022-10-05T01:23:56.474Z,6.37
2022-10-05T01:26:51.518Z,5.33
2022-10-05T01:29:26.791Z,5.73
2022-10-05T01:32:04.288Z,5.13
2022-10-05T01:34:40.834Z,6.27
2022-10-05T01:37:21.760Z,5.60
2022-10-05T01:39:58.888Z,5.20
2022-10-05T01:42:39.185Z,5.93
2022-10-05T01:45:18.711Z,6.00
2022-10-05T01:47:52.824Z,5.57
2022-10-05T01:50:35.991Z,5.40
2022-10-05T01:53:15.463Z,6.30
2022-10-05T01:55:54.533Z,6.30
2022-10-05T01:58:37.700Z,6.80
2022-10-05T02:01:17.468Z,6.07
2022-10-05T02:03:52.712Z,5.97
2022-10-05T02:06:27.573Z,5.50
2022-10-05T02:09:04.387Z,5.70
2022-10-05T02:11:36.647Z,6.30
2022-10-05T02:14:13.988Z,5.40
2022-10-05T02:16:49.683Z,6.07
2022-10-05T02:19:24.903Z,5.57
2022-10-05T02:22:01.730Z,6.90
2022-10-05T02:24:38.911Z,5.13
2022-10-05T02:27:12.172Z,5.67
2022-10-05T02:29:48.036Z,6.83
2022-10-05T02:32:26.040Z,5.80
2022-10-05T02:35:04.655Z,6.20
2022-10-05T02:37:43.784Z,5.77
2022-10-05T02:40:24.753Z,6.07
2022-10-05T02:43:06.095Z,5.40
2022-10-05T02:45:45.173Z,5.87
2022-10-05T02:48:28.835Z,5.80
2022-10-05T02:51:12.833Z,6.03
2022-10-05T02:54:00.741Z,5.53
2022-10-05T02:56:37.244Z,5.80
2022-10-05T02:59:17.149Z,4.90
2022-10-05T03:01:55.980Z,5.57
2022-10-05T03:04:37.964Z,5.90
2022-10-05T03:07:16.905Z,6.43
2022-10-05T03:10:02.012Z,6.00
2022-10-05T03:12:47.519Z,5.70
2022-10-05T03:15:31.568Z,6.70
2022-10-05T03:18:11.992Z,6.10
2022-10-05T03:20:51.598Z,5.77
2022-10-05T03:23:32.648Z,6.40
2022-10-05T03:26:20.963Z,6.67
2022-10-05T03:29:03.323Z,5.03
2022-10-05T03:31:40.821Z,5.30
2022-10-05T03:34:18.223Z,5.90
2022-10-05T03:36:58.782Z,6.27
2022-10-05T03:39:36.917Z,5.67
2022-10-05T03:42:17.312Z,6.57
2022-10-05T03:44:56.409Z,5.90
2022-10-05T03:47:38.025Z,6.90
2022-10-05T03:50:22.487Z,6.70
2022-10-05T03:52:59.868Z,5.50
2022-10-05T03:55:36.514Z,6.20
2022-10-05T03:58:15.323Z,5.47
2022-10-05T04:00:51.110Z,5.47
2022-10-05T04:03:27.077Z,5.67
2022-10-05T04:06:02.182Z,6.33
2022-10-05T04:08:46.875Z,6.83
2022-10-05T04:11:26.848Z,6.33
2022-10-05T04:14:02.142Z,5.97
2022-10-05T04:16:37.396Z,6.50
2022-10-05T04:19:17.046Z,6.93
2022-10-05T04:21:54.364Z,5.50
2022-10-05T04:24:35.228Z,6.43
2022-10-05T04:27:13.817Z,5.80
2022-10-05T04:29:51.094Z,6.60
2022-10-05T04:32:33.230Z,6.50
2022-10-05T04:35:27.400Z,6.60
2022-10-05T04:38:05.617Z,6.30
2022-10-05T04:40:52.899Z,6.50
2022-10-05T04:43:33.719Z,6.77
2022-10-05T04:46:20.020Z,6.50
2022-10-05T04:49:15.346Z,6.90
2022-10-05T04:51:55.707Z,6.37
2022-10-05T04:54:40.698Z,6.33
2022-10-05T04:57:21.544Z,7.03
2022-10-05T05:00:10.515Z,6.63
2022-10-05T05:02:55.985Z,6.77
2022-10-05T05:05:34.753Z,5.80
2022-10-05T05:08:20.639Z,6.43
2022-10-05T05:11:24.434Z,7.00
2022-10-05T05:14:24.373Z,6.87
2022-10-05T05:17:12.173Z,7.13
2022-10-05T05:19:52.324Z,6.10
2022-10-05T05:22:30.592Z,6.23
2022-10-05T05:25:19.464Z,5.23
2022-10-05T05:27:55.741Z,6.30
2022-10-05T05:30:39.680Z,6.00
2022-10-05T05:33:27.316Z,7.30
2022-10-05T05:36:22.200Z,6.67
2022-10-05T05:39:03.887Z,5.83
2022-10-05T05:41:41.652Z,7.63
2022-10-05T05:44:23.314Z,5.83
2022-10-05T05:47:04.578Z,6.87
2022-10-05T05:49:47.919Z,7.00
2022-10-05T05:52:22.899Z,6.33
2022-10-05T05:55:02.744Z,6.40
2022-10-05T05:57:38.860Z,7.00
2022-10-05T06:00:18.161Z,6.77
2022-10-05T06:02:57.339Z,5.80
2022-10-05T06:05:35.653Z,6.33
2022-10-05T06:08:22.858Z,6.50
2022-10-05T06:10:59.456Z,5.77
2022-10-05T06:13:35.459Z,6.43
2022-10-05T06:16:14.925Z,5.60
2022-10-05T06:18:53.698Z,5.60
2022-10-05T06:21:32.642Z,5.83
2022-10-05T06:24:08.376Z,5.53
2022-10-05T06:27:15.344Z,6.70
2022-10-05T06:29:59.512Z,5.70
2022-10-05T06:32:35.044Z,5.40
2022-10-05T06:35:21.049Z,6.17
2022-10-05T06:38:07.250Z,4.80
2022-10-05T06:40:52.079Z,4.80
2022-10-05T06:43:42.381Z,5.90
2022-10-05T06:46:24.278Z,5.20
2022-10-05T06:49:17.955Z,5.20
2022-10-05T06:51:57.526Z,5.27
2022-10-05T06:54:44.825Z,5.77
2022-10-05T06:57:31.299Z,5.90
2022-10-05T07:00:05.173Z,6.00
2022-10-05T07:02:44.764Z,5.20
2022-10-05T07:05:48.295Z,5.20
2022-10-05T07:08:33.517Z,5.30
2022-10-05T07:11:15.334Z,5.13
2022-10-05T07:13:59.288Z,4.97
2022-10-05T07:16:41.077Z,5.30
2022-10-05T07:19:25.162Z,5.20
2022-10-05T07:22:11.518Z,4.73
2022-10-05T07:24:51.578Z,5.30
2022-10-05T07:27:26.273Z,5.00
2022-10-05T07:30:04.625Z,4.53
2022-10-05T07:32:43.880Z,5.50
2022-10-05T07:35:35.875Z,4.37
2022-10-05T07:38:14.091Z,4.53
2022-10-05T07:40:55.331Z,4.67
2022-10-05T07:43:57.958Z,5.07
2022-10-05T07:46:38.094Z,3.77
2022-10-05T07:49:15.581Z,5.17
2022-10-05T07:51:51.783Z,4.57
2022-10-05T07:54:27.844Z,4.47
2022-10-05T07:57:08.609Z,5.20
2022-10-05T07:59:47.920Z,4.00
2022-10-05T08:02:28.846Z,4.30
2022-10-05T08:05:05.644Z,4.17
2022-10-05T08:07:39.733Z,4.20
2022-10-05T08:10:25.933Z,3.43
2022-10-05T08:13:11.355Z,4.00
2022-10-05T08:15:44.763Z,4.00
2022-10-05T08:18:22.966Z,3.70
2022-10-05T08:21:00.384Z,3.97
2022-10-05T08:23:38.734Z,3.53
2022-10-05T08:26:19.304Z,4.30
2022-10-05T08:29:09.168Z,3.63
2022-10-05T08:31:49.003Z,3.57
2022-10-05T08:34:29.697Z,3.53
2022-10-05T08:37:06.780Z,3.87
2022-10-05T08:39:42.689Z,3.37
2022-10-05T08:42:38.354Z,3.67
2022-10-05T08:45:45.421Z,3.57
2022-10-05T08:48:43.518Z,3.63
2022-10-05T08:51:35.459Z,3.37
2022-10-05T08:54:38.205Z,3.50
2022-10-05T08:57:35.472Z,3.63
2022-10-05T09:00:20.100Z,3.10
2022-10-05T09:03:25.880Z,3.30
2022-10-05T09:06:21.359Z,3.07
2022-10-05T09:09:19.993Z,3.53
2022-10-05T09:12:10.576Z,3.20
2022-10-05T09:15:20.466Z,3.00
2022-10-05T09:18:13.889Z,3.27
2022-10-05T09:20:53.817Z,3.70
2022-10-05T09:23:42.919Z,2.70
2022-10-05T09:26:45.091Z,3.20
2022-10-05T09:29:39.646Z,4.03
2022-10-05T09:32:33.228Z,3.17
2022-10-05T09:35:23.312Z,3.37
2022-10-05T09:38:23.338Z,3.43
2022-10-05T09:41:30.108Z,3.10
2022-10-05T09:44:24.819Z,2.80
2022-10-05T09:47:22.916Z,3.10
2022-10-05T09:50:42.391Z,3.50
2022-10-05T09:53:40.570Z,3.20
2022-10-05T09:56:42.352Z,3.40
2022-10-05T09:59:59.841Z,3.50
2022-10-05T10:03:04.921Z,3.40
2022-10-05T10:06:13.110Z,3.07
2022-10-05T10:09:09.451Z,3.20
2022-10-05T10:11:53.682Z,3.00
2022-10-05T10:15:40.518Z,3.10
2022-10-05T10:22:14.736Z,3.00
2022-10-05T10:25:08.018Z,3.10
2022-10-05T10:28:16.823Z,3.40
2022-10-05T10:31:09.222Z,2.60
2022-10-05T10:34:11.748Z,2.80
2022-10-05T10:36:59.833Z,2.73
2022-10-05T10:39:45.417Z,2.70
2022-10-05T10:42:35.196Z,2.60
2022-10-05T10:45:24.396Z,2.93
2022-10-05T10:48:15.199Z,2.03
2022-10-05T10:51:08.490Z,2.90
2022-10-05T10:54:09.347Z,2.47
2022-10-05T10:57:09.326Z,2.50
2022-10-05T11:00:08.244Z,2.40
2022-10-05T11:03:09.937Z,2.37
2022-10-05T11:06:17.109Z,2.00
2022-10-05T11:09:12.124Z,2.40
2022-10-05T11:12:11.761Z,2.43
2022-10-05T11:15:10.787Z,2.83
2022-10-05T11:18:08.473Z,1.93
2022-10-05T11:21:02.584Z,2.30
2022-10-05T11:24:00.549Z,2.13
2022-10-05T11:26:45.067Z,2.37
2022-10-05T11:29:48.626Z,1.90
2022-10-05T11:32:41.944Z,2.20
2022-10-05T11:35:52.481Z,2.50
2022-10-05T11:38:51.414Z,2.07
2022-10-05T11:41:50.307Z,1.90
2022-10-05T11:44:52.616Z,2.00
2022-10-05T11:47:30.435Z,2.53
2022-10-05T11:50:13.226Z,2.40
2022-10-05T11:52:50.202Z,2.70
2022-10-05T11:55:30.224Z,2.97
2022-10-05T11:58:05.563Z,2.67
2022-10-05T12:00:43.836Z,2.03
2022-10-05T12:03:51.339Z,2.43
2022-10-05T12:06:41.303Z,2.00
2022-10-05T12:09:24.284Z,2.30
2022-10-05T12:12:10.340Z,2.63
2022-10-05T12:14:51.703Z,2.53
2022-10-05T12:17:30.119Z,3.23
2022-10-05T12:20:09.555Z,2.30
2022-10-05T12:22:43.458Z,2.03
2022-10-05T12:25:30.510Z,2.20
2022-10-05T12:28:07.308Z,3.00
2022-10-05T12:31:07.590Z,2.70
2022-10-05T12:33:45.460Z,2.47
2022-10-05T12:36:31.918Z,2.00
2022-10-05T12:39:21.479Z,2.47
2022-10-05T12:41:59.336Z,2.00
2022-10-05T12:44:49.183Z,2.47
2022-10-05T12:47:27.148Z,2.30
2022-10-05T12:50:21.893Z,2.57
2022-10-05T12:53:14.590Z,2.30
2022-10-05T12:55:55.163Z,3.30
2022-10-05T12:58:39.280Z,2.20
2022-10-05T13:01:21.224Z,2.07
2022-10-05T13:04:01.533Z,2.20
2022-10-05T13:06:41.721Z,2.47
2022-10-05T13:09:23.267Z,2.00
2022-10-05T13:11:57.904Z,2.20
2022-10-05T13:14:47.032Z,2.20
2022-10-05T13:17:24.390Z,2.10
2022-10-05T13:20:03.715Z,2.47
2022-10-05T13:22:39.084Z,1.90
2022-10-05T13:25:30.300Z,1.93
2022-10-05T13:28:22.506Z,1.70
2022-10-05T13:31:08.059Z,2.40
2022-10-05T13:34:10.188Z,1.63
2022-10-05T13:36:56.534Z,1.70
2022-10-05T13:39:37.699Z,2.00
2022-10-05T13:42:18.658Z,2.33
2022-10-05T13:44:58.800Z,1.80
2022-10-05T13:47:37.815Z,2.17
2022-10-05T13:50:18.288Z,1.80
2022-10-05T13:52:56.091Z,2.23
2022-10-05T13:55:42.758Z,2.10
2022-10-05T13:58:32.297Z,1.87
2022-10-05T14:01:05.837Z,2.03
2022-10-05T14:03:38.292Z,1.73
2022-10-05T14:06:17.438Z,3.20
2022-10-05T14:08:53.617Z,1.93
2022-10-05T14:11:29.489Z,1.60
2022-10-05T14:14:18.464Z,2.00
2022-10-05T14:16:54.890Z,2.17
2022-10-05T14:19:34.784Z,2.00
2022-10-05T14:22:14.171Z,1.80
2022-10-05T14:24:53.421Z,1.80
2022-10-05T14:27:27.188Z,1.60
2022-10-05T14:30:04.939Z,2.40
2022-10-05T14:32:46.204Z,1.73
2022-10-05T14:35:22.049Z,1.73
2022-10-05T14:37:58.917Z,3.30
2022-10-05T14:40:34.769Z,1.90
2022-10-05T14:43:20.853Z,1.50
2022-10-05T14:46:05.242Z,1.60
2022-10-05T14:48:43.866Z,1.57
2022-10-05T14:51:31.847Z,1.87
2022-10-05T14:54:07.677Z,1.63
2022-10-05T14:56:48.230Z,1.70
2022-10-05T15:00:06.904Z,1.90
2022-10-05T15:02:54.388Z,1.63
2022-10-05T15:05:31.723Z,1.70
2022-10-05T15:08:19.313Z,1.70
2022-10-05T15:10:54.216Z,1.87
2022-10-05T15:13:32.995Z,1.67
2022-10-05T15:16:09.476Z,1.90
2022-10-05T15:18:49.056Z,1.73
2022-10-05T15:21:33.984Z,2.13
2022-10-05T15:24:09.372Z,2.00
2022-10-05T15:26:51.411Z,2.30
2022-10-05T15:29:51.995Z,1.80
2022-10-05T15:32:43.120Z,1.77
2022-10-05T15:35:38.126Z,1.93
2022-10-05T15:38:26.704Z,1.90
2022-10-05T15:41:05.044Z,2.13
2022-10-05T15:43:46.646Z,1.87
2022-10-05T15:46:22.033Z,1.90
2022-10-05T15:49:08.503Z,2.10
2022-10-05T15:51:56.662Z,1.50
2022-10-05T15:54:54.729Z,1.70
2022-10-05T15:57:32.803Z,1.97
2022-10-05T16:00:10.575Z,1.70
2022-10-05T16:02:46.768Z,1.60
2022-10-05T16:05:47.631Z,1.47
2022-10-05T16:08:55.564Z,2.23
2022-10-05T16:11:40.436Z,2.03
2022-10-05T16:14:31.747Z,2.30
2022-10-05T16:17:20.785Z,2.00
2022-10-05T16:20:03.064Z,2.00
2022-10-05T16:22:43.736Z,2.03
2022-10-05T16:25:25.213Z,2.00
2022-10-05T16:28:14.430Z,2.07
2022-10-05T16:30:59.624Z,2.17
2022-10-05T16:33:46.733Z,2.20
2022-10-05T16:36:31.677Z,2.30
2022-10-05T16:39:07.692Z,1.80
2022-10-05T16:41:48.071Z,1.97
2022-10-05T16:44:26.203Z,1.90
2022-10-05T16:47:08.574Z,1.80
2022-10-05T16:49:48.129Z,2.20
2022-10-05T16:52:21.783Z,2.20
2022-10-05T16:54:56.903Z,1.90
2022-10-05T16:57:36.024Z,2.07
2022-10-05T17:00:20.989Z,2.03
2022-10-05T17:03:24.658Z,2.07
2022-10-05T17:06:22.946Z,2.30
2022-10-05T17:09:14.939Z,2.30
2022-10-05T17:12:03.578Z,2.73
2022-10-05T17:14:44.190Z,2.30
2022-10-05T17:17:30.397Z,3.17
2022-10-05T17:20:22.753Z,2.80
2022-10-05T17:22:59.169Z,2.90
2022-10-05T17:25:42.180Z,2.10
2022-10-05T17:28:28.148Z,2.53
2022-10-05T17:31:20.417Z,2.30
2022-10-05T17:34:14.885Z,2.20
2022-10-05T17:36:50.516Z,2.20
2022-10-05T17:39:23.112Z,2.27
2022-10-05T17:41:54.281Z,2.30
2022-10-05T17:44:27.182Z,2.13
2022-10-05T17:47:04.146Z,2.40
2022-10-05T17:50:21.704Z,2.10
2022-10-05T17:53:35.800Z,2.30
2022-10-05T17:56:07.664Z,2.20
2022-10-05T17:59:07.366Z,2.80
2022-10-05T18:01:40.349Z,2.33
2022-10-05T18:04:42.688Z,3.07
2022-10-05T18:07:26.509Z,2.50
2022-10-05T18:10:18.778Z,2.83
2022-10-05T18:12:51.878Z,2.27
2022-10-05T18:15:49.269Z,2.40
2022-10-05T18:18:59.016Z,2.00
2022-10-05T18:21:43.137Z,2.07
2022-10-05T18:24:33.855Z,2.27
2022-10-05T18:27:30.775Z,2.40
2022-10-05T18:30:18.044Z,2.10
2022-10-05T18:33:25.532Z,2.67
2022-10-05T18:36:05.387Z,2.80
2022-10-05T18:38:47.104Z,2.33
2022-10-05T18:41:26.895Z,2.33
2022-10-05T18:44:17.540Z,2.10
2022-10-05T18:46:54.239Z,2.20
2022-10-05T18:49:51.780Z,2.00
2022-10-05T18:52:33.279Z,2.20
2022-10-05T18:55:18.325Z,1.77
2022-10-05T18:58:14.012Z,2.10
2022-10-05T19:01:05.239Z,2.33
2022-10-05T19:03:46.430Z,2.40
2022-10-05T19:06:27.039Z,2.50
2022-10-05T19:09:09.619Z,1.90
2022-10-05T19:11:54.975Z,1.90
2022-10-05T19:14:35.791Z,2.00
2022-10-05T19:17:21.208Z,2.10
2022-10-05T19:20:17.495Z,1.87
2022-10-05T19:23:12.405Z,1.77
2022-10-05T19:25:49.158Z,1.90
2022-10-05T19:28:32.276Z,1.97
2022-10-05T19:31:17.573Z,2.57
2022-10-05T19:34:01.576Z,1.87
2022-10-05T19:36:45.586Z,1.87
2022-10-05T19:39:23.751Z,2.17
2022-10-05T19:42:09.448Z,2.07
2022-10-05T19:44:53.167Z,1.90
2022-10-05T19:47:38.864Z,1.77
2022-10-05T19:50:32.885Z,1.80
2022-10-05T19:53:12.809Z,1.80
2022-10-05T19:55:45.726Z,1.70
2022-10-05T19:58:22.272Z,2.00
2022-10-05T20:01:01.335Z,1.67
2022-10-05T20:03:36.725Z,1.83
2022-10-05T20:06:10.206Z,2.13
2022-10-05T20:08:45.932Z,3.30
2022-10-05T20:11:18.978Z,2.53
2022-10-05T20:14:13.792Z,2.57
2022-10-05T20:16:59.722Z,2.10
2022-10-05T20:19:54.199Z,2.10
2022-10-05T20:22:34.635Z,2.00
2022-10-05T20:25:10.070Z,2.10
2022-10-05T20:27:48.003Z,2.00
2022-10-05T20:30:24.701Z,2.10
2022-10-05T20:33:04.647Z,1.90
2022-10-05T20:35:35.534Z,2.03
2022-10-05T20:38:06.369Z,1.90
2022-10-05T20:40:41.792Z,1.70
2022-10-05T20:43:13.100Z,2.67
2022-10-05T20:45:43.959Z,2.33
2022-10-05T20:48:19.565Z,1.70
2022-10-05T20:50:50.328Z,2.50
2022-10-05T20:53:21.043Z,1.73
2022-10-05T20:55:51.755Z,2.10
2022-10-05T20:58:23.280Z,2.13
2022-10-05T21:01:06.538Z,1.80
2022-10-05T21:03:43.083Z,1.80
2022-10-05T21:06:13.879Z,1.93
2022-10-05T21:08:46.315Z,2.23
2022-10-05T21:11:17.316Z,1.70
2022-10-05T21:13:51.299Z,2.20
2022-10-05T21:16:23.063Z,2.10
2022-10-05T21:18:56.494Z,1.93
2022-10-05T21:21:28.182Z,2.90
2022-10-05T21:24:00.732Z,2.20
2022-10-05T21:26:31.939Z,2.10
2022-10-05T21:29:07.825Z,2.50
2022-10-05T21:31:41.272Z,2.40
2022-10-05T21:34:14.724Z,2.27
2022-10-05T21:36:45.466Z,1.80
2022-10-05T21:39:16.422Z,2.07
2022-10-05T21:41:48.712Z,2.10
2022-10-05T21:44:20.663Z,1.80
2022-10-05T21:46:52.188Z,1.70
2022-10-05T21:49:27.061Z,2.37
2022-10-05T21:51:58.483Z,2.90
2022-10-05T21:54:29.700Z,2.40
2022-10-05T21:57:00.924Z,2.93
2022-10-05T21:59:35.151Z,2.23
2022-10-05T22:02:05.991Z,2.20
2022-10-05T22:04:39.362Z,2.30
2022-10-05T22:07:21.036Z,2.23
2022-10-05T22:09:51.910Z,2.30
2022-10-05T22:12:26.090Z,2.17
2022-10-05T22:14:57.316Z,2.50
2022-10-05T22:17:31.285Z,2.80
2022-10-05T22:20:05.368Z,2.23
2022-10-05T22:22:36.569Z,2.40
2022-10-05T22:25:08.400Z,2.77
2022-10-05T22:27:42.592Z,2.27
2022-10-05T22:30:14.732Z,2.57
2022-10-05T22:32:45.713Z,2.10
2022-10-05T22:35:19.279Z,1.60
2022-10-05T22:37:50.023Z,1.50
2022-10-05T22:40:22.053Z,1.67
2022-10-05T22:42:54.868Z,1.40
2022-10-05T22:45:30.341Z,1.43
2022-10-05T22:48:03.776Z,2.10
2022-10-05T22:50:39.367Z,2.30
2022-10-05T22:53:10.589Z,1.87
2022-10-05T22:55:41.427Z,1.40
2022-10-05T22:58:14.102Z,1.57
2022-10-05T23:00:58.536Z,1.50
2022-10-05T23:03:42.300Z,1.70
2022-10-05T23:06:20.408Z,1.50
2022-10-05T23:08:52.290Z,1.43
2022-10-05T23:11:25.928Z,1.40
2022-10-05T23:13:58.674Z,1.37
2022-10-05T23:16:31.451Z,1.33
2022-10-05T23:19:04.665Z,1.47
2022-10-05T23:21:38.100Z,1.73
2022-10-05T23:24:09.292Z,1.90
2022-10-05T23:26:40.326Z,2.00
2022-10-05T23:29:11.592Z,1.83
2022-10-05T23:31:42.550Z,1.60
2022-10-05T23:34:13.317Z,1.50
2022-10-05T23:36:46.698Z,1.33
2022-10-05T23:39:17.430Z,1.30
2022-10-05T23:41:50.856Z,1.27
2022-10-05T23:44:23.001Z,1.03
2022-10-05T23:46:55.973Z,0.87
2022-10-05T23:49:26.774Z,1.00
2022-10-05T23:52:02.303Z,0.83
2022-10-05T23:54:34.296Z,1.17
2022-10-05T23:57:05.431Z,1.10
2022-10-05T23:59:36.924Z,0.90
